This is the latest recevied weather packets stored in our database for station/object KD8OZS. If no packets are shown the sender has not sent any weather packets the latest 10 day(s).
| Time | Temp. | Humidity | Pressure | Rain* | Wind** | Luminosity | Snow |
|---|---|---|---|---|---|---|---|
| 1778215751 | 6.67° C | 85% | 1006 hPa | 0 mm | - | 0 W/m² | - |
| 1778214841 | 7.22° C | 82% | 1005.9 hPa | 0 mm | - | 0 W/m² | - |
| 1778198172 | 11.67° C | 51% | 1005.4 hPa | 0 mm | - | 19 W/m² | - |
| 1778189674 | 13.89° C | 45% | 1005.1 hPa | 0 mm | - | 123 W/m² | - |
| 1778189371 | 15° C | 44% | 1005.1 hPa | 0 mm | - | 424 W/m² | - |
| 1778189067 | 14.44° C | 43% | 1005.2 hPa | 0 mm | - | 421 W/m² | - |
| 1778188764 | 14.44° C | 43% | 1004.8 hPa | 0 mm | - | 413 W/m² | - |
| 1778188461 | 14.44° C | 43% | 1004.8 hPa | 0 mm | - | 442 W/m² | - |
| 1778187855 | 14.44° C | 46% | 1005 hPa | 0 mm | - | 505 W/m² | - |
| 1778187249 | 14.44° C | 46% | 1004.8 hPa | 0 mm | - | 476 W/m² | - |
| 1778186339 | 13.89° C | 49% | 1004.7 hPa | 0 mm | - | 533 W/m² | - |
| 1778186037 | 15° C | 46% | 1005 hPa | 0 mm | - | 537 W/m² | - |
| 1778185733 | 13.89° C | 51% | 1004.9 hPa | 0 mm | - | 593 W/m² | - |
| 1778184820 | 14.44° C | 46% | 1004.6 hPa | 0 mm | - | 331 W/m² | - |
| 1778183909 | 12.78° C | 51% | 1005.1 hPa | 0 mm | - | 157 W/m² | - |
| 1778183607 | 12.78° C | 52% | 1005.1 hPa | 0 mm | - | 215 W/m² | - |
| 1778183000 | 13.33° C | 50% | 1005 hPa | 0 mm | - | 184 W/m² | - |
| 1778182697 | 13.89° C | 50% | 1005.1 hPa | 0 mm | - | 149 W/m² | - |
| 1778182394 | 12.78° C | 51% | 1005.1 hPa | 0 mm | - | 204 W/m² | - |
| 1778182089 | 13.89° C | 50% | 1004.9 hPa | 0 mm | - | 158 W/m² | - |
| 1778181787 | 15° C | 46% | 1005.2 hPa | 0 mm | - | 713 W/m² | - |
| 1778181483 | 15.56° C | 53% | 1005.2 hPa | 0 mm | - | 727 W/m² | - |
| 1778181179 | 15° C | 48% | 1005.2 hPa | 0 mm | - | 787 W/m² | - |
| 1778180876 | 15° C | 48% | 1005.3 hPa | 0 mm | - | 812 W/m² | - |
| 1778180575 | 15° C | 52% | 1005.1 hPa | 0 mm | - | 839 W/m² | - |
* Rain latest hour (hover to see other rain measurements)
** Current wind speed in m/s (hover to see current wind gust speed)